Time;durP1;ratioP1;P1;durP2;ratioP2;P2;SDS_P1;SDS_P2;PMS_P1;PMS_P2;Temp;Humidity;BMP_temperature;BMP_pressure;BME280_temperature;BME280_humidity;BME280_pressure;Samples;Min_cycle;Max_cycle;Signal;HPM_P1;HPM_P2
2021/11/18 00:02:06;;;;;;;29.10;12.80;;;;;;;5.61;86.82;100892.73;103311;1308;22586;-57
2021/11/18 00:04:36;;;;;;;30.10;12.00;;;;;;;5.62;86.86;100894.21;103402;1308;23962;-57
2021/11/18 00:07:07;;;;;;;28.60;11.40;;;;;;;5.62;86.86;100897.13;103389;1309;24242;-59
2021/11/18 00:09:38;;;;;;;27.50;12.60;;;;;;;5.63;86.94;100895.05;103392;1309;22648;-57
2021/11/18 00:12:10;;;;;;;28.50;11.70;;;;;;;5.64;86.96;100896.52;103368;1310;24134;-56
2021/11/18 00:14:42;;;;;;;27.60;12.10;;;;;;;5.65;86.93;100894.52;103710;1309;25463;-59
2021/11/18 00:17:12;;;;;;;27.50;10.70;;;;;;;5.66;87.03;100896.33;103559;1309;23937;-56
2021/11/18 00:19:43;;;;;;;25.50;10.50;;;;;;;5.66;87.18;100893.01;103443;1313;22647;-58
2021/11/18 00:22:16;;;;;;;27.90;12.00;;;;;;;5.67;87.22;100891.31;103497;1308;22518;-60
2021/11/18 00:24:47;;;;;;;25.70;11.10;;;;;;;5.69;87.14;100892.30;103547;1317;25529;-58
2021/11/18 00:27:18;;;;;;;25.60;10.80;;;;;;;5.70;87.24;100897.11;103426;1308;22673;-58
2021/11/18 00:29:52;;;;;;;28.30;11.90;;;;;;;5.71;87.26;100898.42;103327;1313;25664;-58
2021/11/18 00:32:22;;;;;;;25.80;10.50;;;;;;;5.73;87.19;100903.08;103413;1308;25460;-58
2021/11/18 00:34:53;;;;;;;28.00;10.70;;;;;;;5.73;87.35;100903.20;103416;1309;25441;-57
2021/11/18 00:37:24;;;;;;;26.10;11.10;;;;;;;5.75;87.38;100906.27;103349;1308;22813;-59
2021/11/18 00:39:55;;;;;;;30.30;11.90;;;;;;;5.77;87.42;100905.66;103386;1312;25283;-57
2021/11/18 00:42:26;;;;;;;25.60;11.30;;;;;;;5.78;87.21;100906.27;103396;1308;23312;-58
2021/11/18 00:44:57;;;;;;;26.10;11.10;;;;;;;5.79;87.31;100902.92;103083;1311;22558;-59
2021/11/18 00:47:29;;;;;;;27.90;11.60;;;;;;;5.81;87.31;100905.27;103396;1312;23809;-59
2021/11/18 00:50:00;;;;;;;28.40;12.00;;;;;;;5.82;87.27;100907.99;103488;1308;25463;-58
2021/11/18 00:52:32;;;;;;;27.30;11.20;;;;;;;5.83;87.29;100910.05;103482;1309;22659;-59
2021/11/18 00:55:04;;;;;;;30.60;13.40;;;;;;;5.85;87.26;100912.48;103443;1309;22816;-59
2021/11/18 00:57:36;;;;;;;26.70;10.80;;;;;;;5.85;87.20;100915.08;103521;1311;22605;-58
2021/11/18 01:00:11;;;;;;;26.70;10.90;;;;;;;5.85;87.25;100918.65;103448;1312;22524;-58
2021/11/18 01:02:42;;;;;;;27.40;11.20;;;;;;;5.86;87.33;100922.67;103492;1313;22583;-59
2021/11/18 01:05:14;;;;;;;22.20;9.90;;;;;;;5.87;87.29;100921.15;103374;1308;25544;-55
2021/11/18 01:07:45;;;;;;;26.50;10.60;;;;;;;5.88;87.34;100925.33;103551;1308;24486;-58
2021/11/18 01:10:18;;;;;;;23.40;10.00;;;;;;;5.89;87.31;100927.98;103415;1309;24244;-58
2021/11/18 01:12:49;;;;;;;28.00;10.70;;;;;;;5.90;87.29;100930.02;103537;1316;25565;-59
2021/11/18 01:15:24;;;;;;;26.70;10.80;;;;;;;5.91;87.27;100930.41;103427;1311;24103;-60
2021/11/18 01:17:55;;;;;;;28.10;11.20;;;;;;;5.91;87.22;100926.83;103557;1309;24209;-59
2021/11/18 01:20:28;;;;;;;23.60;10.40;;;;;;;5.92;87.17;100927.60;103450;1313;22782;-60
2021/11/18 01:23:02;;;;;;;25.20;9.80;;;;;;;5.92;87.20;100924.34;103497;1309;24220;-56
2021/11/18 01:25:35;;;;;;;25.60;10.60;;;;;;;5.92;87.08;100926.16;103500;1308;22588;-55
2021/11/18 01:28:08;;;;;;;24.20;9.30;;;;;;;5.93;87.07;100930.11;103677;1308;25935;-56
2021/11/18 01:30:42;;;;;;;21.40;8.30;;;;;;;5.93;87.02;100934.46;103549;1316;25490;-56
2021/11/18 01:33:16;;;;;;;24.50;8.90;;;;;;;5.94;87.02;100935.00;103463;1309;22609;-55
2021/11/18 01:35:49;;;;;;;27.00;10.00;;;;;;;5.93;86.88;100938.50;103541;1308;25256;-56
2021/11/18 01:38:21;;;;;;;22.90;8.20;;;;;;;5.93;86.91;100941.27;103571;1309;24234;-56
2021/11/18 01:40:54;;;;;;;25.20;9.10;;;;;;;5.93;86.96;100947.54;103415;1309;22644;-56
2021/11/18 01:43:29;;;;;;;24.30;8.60;;;;;;;5.92;86.89;100946.85;103439;1309;22686;-55
2021/11/18 01:46:01;;;;;;;21.40;8.90;;;;;;;5.92;86.87;100945.98;103453;1316;22590;-56
2021/11/18 01:48:32;;;;;;;25.00;9.00;;;;;;;5.90;86.81;100947.98;103471;1316;22555;-53
2021/11/18 01:51:05;;;;;;;22.10;7.60;;;;;;;5.90;86.74;100948.93;103414;1310;22574;-56
2021/11/18 01:53:38;;;;;;;18.70;7.10;;;;;;;5.89;86.67;100950.71;103513;1309;22593;-56
2021/11/18 01:56:13;;;;;;;25.00;8.30;;;;;;;5.86;86.65;100959.48;103483;1315;24218;-57
2021/11/18 01:58:45;;;;;;;20.20;7.00;;;;;;;5.85;86.75;100966.55;103451;1308;22564;-57
2021/11/18 02:01:16;;;;;;;21.40;8.30;;;;;;;5.84;86.70;100968.15;103467;1313;25395;-57
2021/11/18 02:03:48;;;;;;;21.20;7.20;;;;;;;5.85;86.85;100973.21;104028;1309;23840;-56
2021/11/18 02:06:22;;;;;;;24.40;8.10;;;;;;;5.86;86.79;100973.58;103855;1308;22590;-59
2021/11/18 02:08:53;;;;;;;20.60;7.70;;;;;;;5.86;86.67;100967.16;103424;1309;22640;-57
2021/11/18 02:11:31;;;;;;;21.30;8.10;;;;;;;5.87;86.67;100963.17;103376;1308;22644;-58
2021/11/18 02:14:03;;;;;;;23.80;7.70;;;;;;;5.87;86.54;100958.50;103556;1309;22578;-57
2021/11/18 02:16:35;;;;;;;21.90;7.70;;;;;;;5.85;86.51;100968.60;103438;1309;23315;-56
2021/11/18 02:19:08;;;;;;;23.50;8.60;;;;;;;5.85;86.50;100963.85;103424;1309;22689;-59
2021/11/18 02:21:41;;;;;;;20.10;6.70;;;;;;;5.85;86.46;100959.35;103608;1315;22554;-55
2021/11/18 02:24:19;;;;;;;21.70;7.70;;;;;;;5.85;86.44;100963.55;103400;1308;22554;-57
2021/11/18 02:26:53;;;;;;;22.00;7.20;;;;;;;5.85;86.44;100967.27;103537;1309;22601;-57
2021/11/18 02:29:24;;;;;;;18.70;6.60;;;;;;;5.86;86.36;100978.02;103428;1308;22640;-57
2021/11/18 02:31:58;;;;;;;24.70;7.30;;;;;;;5.85;86.42;100977.39;103517;1308;25166;-57
2021/11/18 02:34:37;;;;;;;25.10;7.40;;;;;;;5.84;86.35;100973.21;103483;1309;24239;-57
2021/11/18 02:37:09;;;;;;;19.80;7.00;;;;;;;5.83;86.32;100974.56;103424;1309;22663;-59
2021/11/18 02:39:40;;;;;;;20.60;6.80;;;;;;;5.82;86.27;100979.02;103467;1312;23996;-56
2021/11/18 02:42:15;;;;;;;22.60;7.30;;;;;;;5.82;86.27;100982.57;103469;1313;24640;-57
2021/11/18 02:44:46;;;;;;;19.00;6.80;;;;;;;5.83;86.29;100982.16;103598;1308;25427;-56
2021/11/18 02:47:18;;;;;;;23.60;6.70;;;;;;;5.84;86.29;100976.38;103392;1309;22658;-58
2021/11/18 02:49:51;;;;;;;19.10;5.80;;;;;;;5.84;86.25;100973.45;103490;1313;22564;-56
2021/11/18 02:52:27;;;;;;;20.10;7.30;;;;;;;5.86;86.29;100978.26;103562;1308;25252;-57
2021/11/18 02:55:00;;;;;;;24.10;7.20;;;;;;;5.86;86.24;100980.45;103574;1313;22561;-59
2021/11/18 02:57:32;;;;;;;17.00;5.80;;;;;;;5.88;86.16;100986.58;103590;1309;22560;-59
2021/11/18 03:00:05;;;;;;;20.80;6.60;;;;;;;5.89;86.15;100988.09;103460;1313;22754;-55
2021/11/18 03:02:36;;;;;;;17.60;5.40;;;;;;;5.90;86.09;100995.09;103704;1308;22590;-57
2021/11/18 03:05:08;;;;;;;21.00;6.70;;;;;;;5.91;86.03;100992.23;103600;1308;24234;-55
2021/11/18 03:07:40;;;;;;;21.20;5.50;;;;;;;5.93;85.92;100992.11;103619;1309;23859;-62
2021/11/18 03:10:13;;;;;;;22.80;6.30;;;;;;;5.96;85.86;100993.79;103479;1316;25497;-58
2021/11/18 03:12:45;;;;;;;19.10;5.30;;;;;;;5.97;85.78;100991.86;103569;1314;22590;-58
2021/11/18 03:15:17;;;;;;;20.40;5.30;;;;;;;5.99;85.75;100992.84;103291;1309;22542;-58
2021/11/18 03:17:48;;;;;;;15.70;6.00;;;;;;;6.00;85.71;100991.79;103230;1311;22616;-58
2021/11/18 03:20:21;;;;;;;17.80;5.20;;;;;;;6.00;85.59;100996.77;103318;1308;22627;-58
2021/11/18 03:22:52;;;;;;;20.20;4.90;;;;;;;6.00;85.55;100995.59;103421;1308;25451;-59
2021/11/18 03:25:25;;;;;;;17.80;5.60;;;;;;;6.01;85.54;100992.71;103145;1308;22574;-58
2021/11/18 03:27:57;;;;;;;25.90;5.50;;;;;;;6.02;85.45;100996.73;103308;1312;24337;-57
2021/11/18 03:30:32;;;;;;;19.50;4.30;;;;;;;6.03;85.38;100999.00;103070;1309;22562;-56
2021/11/18 03:33:07;;;;;;;14.40;4.50;;;;;;;6.04;85.21;101002.63;103143;1309;25326;-57
2021/11/18 03:35:38;;;;;;;15.40;3.90;;;;;;;6.04;85.24;101001.60;103261;1309;25351;-55
2021/11/18 03:38:11;;;;;;;20.30;4.60;;;;;;;6.04;85.31;101001.05;102851;1306;301841;-57
2021/11/18 03:40:44;;;;;;;19.70;4.70;;;;;;;6.04;85.17;101000.90;103127;1308;22644;-58
2021/11/18 03:43:15;;;;;;;16.30;4.40;;;;;;;6.03;85.17;101002.33;103147;1312;22766;-59
2021/11/18 03:45:46;;;;;;;18.20;4.10;;;;;;;6.04;85.05;101004.06;103139;1308;22572;-55
2021/11/18 03:48:19;;;;;;;15.00;4.40;;;;;;;6.04;85.08;101002.77;103101;1308;22598;-58
2021/11/18 03:50:51;;;;;;;17.80;4.30;;;;;;;6.05;85.00;101000.31;103123;1308;22660;-56
2021/11/18 03:53:22;;;;;;;19.40;3.90;;;;;;;6.06;85.00;101000.67;103092;1308;22599;-57
2021/11/18 03:55:53;;;;;;;21.30;4.40;;;;;;;6.08;84.95;101005.48;103271;1309;22564;-59
2021/11/18 03:58:24;;;;;;;14.30;3.90;;;;;;;6.09;85.00;101006.55;103065;1308;22585;-56
2021/11/18 04:00:56;;;;;;;18.70;3.90;;;;;;;6.10;84.99;101003.22;103122;1313;25279;-58
2021/11/18 04:03:28;;;;;;;15.20;4.40;;;;;;;6.09;85.03;101009.48;103170;1309;24442;-56
2021/11/18 04:06:01;;;;;;;19.20;4.30;;;;;;;6.09;85.16;101010.43;103065;1309;22590;-57
2021/11/18 04:08:32;;;;;;;15.80;3.80;;;;;;;6.08;85.09;101011.90;103112;1314;22591;-58
2021/11/18 04:11:04;;;;;;;23.00;4.30;;;;;;;6.07;85.19;101009.84;103109;1309;22567;-57
2021/11/18 04:13:35;;;;;;;18.70;4.90;;;;;;;6.06;85.18;101007.87;103098;1313;22576;-55
2021/11/18 04:16:07;;;;;;;16.80;4.30;;;;;;;6.06;85.17;101011.71;103129;1316;24242;-58
2021/11/18 04:18:38;;;;;;;24.40;4.60;;;;;;;6.04;85.10;101011.02;103058;1316;22639;-57
2021/11/18 04:21:09;;;;;;;12.60;3.70;;;;;;;6.03;85.17;101015.00;103072;1309;22582;-58
2021/11/18 04:23:40;;;;;;;19.50;4.10;;;;;;;6.02;85.08;101019.08;103187;1309;24295;-58
2021/11/18 04:26:11;;;;;;;21.70;5.40;;;;;;;6.01;85.08;101016.48;103113;1309;25333;-59
2021/11/18 04:28:42;;;;;;;19.10;5.50;;;;;;;6.01;85.10;101011.10;103098;1309;25596;-57
2021/11/18 04:31:16;;;;;;;17.70;3.80;;;;;;;6.00;84.98;101007.55;103137;1308;25045;-57
2021/11/18 04:33:47;;;;;;;17.90;4.90;;;;;;;5.99;85.06;101008.03;103166;1313;25420;-57
2021/11/18 04:36:21;;;;;;;19.40;4.60;;;;;;;6.00;85.17;101011.36;103120;1308;22661;-58
2021/11/18 04:38:53;;;;;;;18.20;4.50;;;;;;;5.98;85.16;101010.52;103120;1309;22680;-56
2021/11/18 04:41:26;;;;;;;18.60;4.60;;;;;;;5.96;85.25;101019.98;103137;1311;25345;-54
2021/11/18 04:43:58;;;;;;;15.70;4.10;;;;;;;5.96;85.24;101007.16;103124;1308;22669;-58
2021/11/18 04:46:30;;;;;;;21.20;5.00;;;;;;;5.95;85.20;101006.95;103168;1310;22631;-54
2021/11/18 04:49:01;;;;;;;26.90;5.70;;;;;;;5.95;85.30;101010.68;103236;1309;23166;-55
2021/11/18 04:51:32;;;;;;;21.80;4.80;;;;;;;5.95;85.33;101014.16;103105;1308;25435;-58
2021/11/18 04:54:03;;;;;;;16.90;4.60;;;;;;;5.94;85.30;101014.81;103082;1309;22708;-56
2021/11/18 04:56:36;;;;;;;20.10;4.80;;;;;;;5.94;85.24;101017.04;103064;1313;22574;-56
2021/11/18 04:59:07;;;;;;;24.00;4.20;;;;;;;5.94;85.24;101019.02;103192;1313;24341;-56
2021/11/18 05:01:38;;;;;;;17.70;4.00;;;;;;;5.93;85.33;101023.70;103254;1307;22560;-58
2021/11/18 05:04:10;;;;;;;21.90;5.60;;;;;;;5.93;85.29;101027.11;103161;1308;25401;-56
2021/11/18 05:06:41;;;;;;;23.40;5.20;;;;;;;5.93;85.27;101025.38;103379;1316;22578;-58
2021/11/18 05:09:12;;;;;;;17.90;4.20;;;;;;;5.93;85.35;101029.16;103110;1308;22596;-55
2021/11/18 05:11:44;;;;;;;18.70;3.90;;;;;;;5.92;85.26;101033.07;102897;1308;22597;-58
2021/11/18 05:14:15;;;;;;;17.80;3.40;;;;;;;5.94;85.36;101026.54;102875;1308;24378;-55
2021/11/18 05:16:46;;;;;;;19.30;3.70;;;;;;;5.93;85.23;101027.98;102821;1316;25381;-57
2021/11/18 05:19:17;;;;;;;19.90;4.10;;;;;;;5.92;85.22;101028.23;102870;1309;22504;-60
2021/11/18 05:21:48;;;;;;;17.20;4.10;;;;;;;5.92;85.21;101034.26;102895;1313;24334;-57
2021/11/18 05:24:20;;;;;;;16.10;3.80;;;;;;;5.91;85.14;101033.01;106836;1308;22575;-58
2021/11/18 05:26:51;;;;;;;17.90;3.50;;;;;;;5.91;85.10;101034.59;106853;1309;22297;-57
2021/11/18 05:29:22;;;;;;;26.40;5.30;;;;;;;5.89;85.04;101041.52;106282;1316;22455;-56
2021/11/18 05:31:53;;;;;;;19.40;3.90;;;;;;;5.89;85.09;101044.21;106047;1317;22359;-55
2021/11/18 05:34:26;;;;;;;16.50;3.50;;;;;;;5.90;85.02;101049.89;106860;1315;22296;-58
2021/11/18 05:36:57;;;;;;;19.20;4.20;;;;;;;5.92;85.01;101049.94;106646;1312;23041;-58
2021/11/18 05:39:28;;;;;;;11.60;3.40;;;;;;;5.94;84.99;101050.38;106856;1308;22309;-63
2021/11/18 05:41:58;;;;;;;17.40;4.40;;;;;;;5.95;84.97;101050.56;106864;1312;23648;-59
2021/11/18 05:44:29;;;;;;;21.40;3.80;;;;;;;5.97;85.01;101052.28;106864;1308;22299;-55
2021/11/18 05:47:02;;;;;;;18.00;4.20;;;;;;;6.00;84.84;101053.80;106862;1309;22409;-57
2021/11/18 05:49:32;;;;;;;20.30;4.10;;;;;;;6.02;84.85;101046.84;106879;1313;23647;-57
2021/11/18 05:52:03;;;;;;;18.60;4.00;;;;;;;6.04;84.70;101044.67;106879;1316;22495;-60
2021/11/18 05:54:34;;;;;;;18.10;4.10;;;;;;;6.06;84.59;101044.48;106886;1316;22525;-60
2021/11/18 05:57:06;;;;;;;19.70;3.60;;;;;;;6.06;84.60;101047.88;106872;1313;23061;-61
2021/11/18 05:59:36;;;;;;;20.90;3.90;;;;;;;6.07;84.47;101055.94;106873;1308;23783;-60
2021/11/18 06:02:08;;;;;;;17.30;4.20;;;;;;;6.09;84.52;101057.56;106841;1314;22357;-60
2021/11/18 06:04:39;;;;;;;22.20;5.00;;;;;;;6.11;84.45;101059.74;106834;1312;22624;-60
2021/11/18 06:07:09;;;;;;;18.10;3.60;;;;;;;6.12;84.34;101063.67;106867;1309;22409;-60
2021/11/18 06:09:41;;;;;;;16.60;4.60;;;;;;;6.14;84.37;101066.01;106900;1315;22427;-59
2021/11/18 06:12:13;;;;;;;22.00;4.50;;;;;;;6.14;84.27;101068.61;106900;1316;23099;-60
2021/11/18 06:14:44;;;;;;;19.20;5.20;;;;;;;6.16;84.32;101072.70;106882;1308;22464;-60
2021/11/18 06:17:15;;;;;;;19.00;3.60;;;;;;;6.17;84.20;101076.31;106859;1308;22282;-60
2021/11/18 06:19:47;;;;;;;16.10;4.00;;;;;;;6.18;84.15;101076.94;106901;1310;22551;-60
2021/11/18 06:22:24;;;;;;;16.90;4.30;;;;;;;6.18;84.21;101078.67;105622;1309;25349;-59
2021/11/18 06:24:57;;;;;;;21.90;4.50;;;;;;;6.20;84.09;101089.24;104143;1309;24347;-59
2021/11/18 06:27:28;;;;;;;23.10;5.00;;;;;;;6.21;84.14;101085.64;103022;1308;22679;-58
2021/11/18 06:29:59;;;;;;;21.40;4.00;;;;;;;6.23;84.13;101088.79;102820;1308;23524;-60
2021/11/18 06:32:30;;;;;;;18.60;4.40;;;;;;;6.25;84.14;101091.04;103023;1311;22593;-59
2021/11/18 06:35:01;;;;;;;15.10;4.20;;;;;;;6.26;83.94;101095.14;103126;1313;22566;-60
2021/11/18 06:37:32;;;;;;;21.20;5.10;;;;;;;6.27;84.03;101098.19;103127;1309;24004;-60
2021/11/18 06:40:03;;;;;;;17.00;4.40;;;;;;;6.29;84.00;101096.59;103177;1313;25227;-60
2021/11/18 06:42:36;;;;;;;14.70;3.70;;;;;;;6.30;83.98;101099.64;103099;1313;24395;-61
2021/11/18 06:45:11;;;;;;;17.40;4.10;;;;;;;6.31;84.05;101105.40;103065;1316;22574;-60
2021/11/18 06:47:42;;;;;;;18.80;4.70;;;;;;;6.33;84.02;101109.33;103081;1309;25560;-62
2021/11/18 06:50:14;;;;;;;22.20;4.20;;;;;;;6.34;83.95;101107.72;103034;1308;22551;-60
2021/11/18 06:52:45;;;;;;;21.10;4.60;;;;;;;6.35;83.96;101110.94;103160;1303;24264;-60
2021/11/18 06:55:18;;;;;;;25.10;4.60;;;;;;;6.36;83.90;101111.24;103116;1308;22589;-59
2021/11/18 06:57:49;;;;;;;23.30;4.80;;;;;;;6.38;83.85;101111.02;103228;1316;24213;-59
2021/11/18 07:00:21;;;;;;;17.30;4.90;;;;;;;6.40;83.77;101115.52;103031;1309;22561;-61
2021/11/18 07:02:52;;;;;;;20.70;4.60;;;;;;;6.42;83.77;101108.89;103155;1308;24309;-60
2021/11/18 07:05:24;;;;;;;20.90;5.00;;;;;;;6.43;83.74;101105.44;103038;1314;22587;-60
2021/11/18 07:07:55;;;;;;;25.10;6.00;;;;;;;6.46;83.61;101107.06;103061;1309;22546;-60
2021/11/18 07:10:26;;;;;;;21.20;5.90;;;;;;;6.47;83.63;101113.05;103028;1311;22574;-59
2021/11/18 07:12:57;;;;;;;19.50;4.60;;;;;;;6.48;83.62;101108.98;103129;1316;25363;-60
2021/11/18 07:15:28;;;;;;;15.80;4.30;;;;;;;6.49;83.62;101107.31;103116;1308;22685;-59
2021/11/18 07:18:00;;;;;;;20.50;4.10;;;;;;;6.50;83.56;101112.27;103169;1309;22593;-60
2021/11/18 07:20:31;;;;;;;17.40;4.10;;;;;;;6.50;83.59;101113.21;104020;1309;25476;-61
2021/11/18 07:23:02;;;;;;;15.70;3.80;;;;;;;6.52;83.58;101112.47;103150;1308;25253;-60
2021/11/18 07:25:33;;;;;;;23.30;5.20;;;;;;;6.54;83.52;101113.63;103157;1313;22773;-61
2021/11/18 07:28:06;;;;;;;19.10;5.10;;;;;;;6.55;83.42;101107.80;103074;1317;22596;-59
2021/11/18 07:30:37;;;;;;;20.90;4.80;;;;;;;6.57;83.48;101111.40;103416;1315;24264;-60
2021/11/18 07:33:08;;;;;;;16.20;4.50;;;;;;;6.59;83.41;101118.02;103137;1313;22564;-59
2021/11/18 07:35:39;;;;;;;21.40;5.20;;;;;;;6.60;83.40;101119.27;103217;1313;23119;-60
2021/11/18 07:38:11;;;;;;;16.90;4.10;;;;;;;6.61;83.31;101117.27;103308;1310;22571;-61
2021/11/18 07:40:42;;;;;;;19.50;4.90;;;;;;;6.63;83.14;101107.95;103459;1308;22652;-60
2021/11/18 07:43:18;;;;;;;17.70;4.60;;;;;;;6.64;83.01;101112.85;103475;1311;22714;-60
2021/11/18 07:45:52;;;;;;;24.60;5.70;;;;;;;6.65;83.02;101115.19;103292;1313;23029;-60
2021/11/18 07:48:23;;;;;;;20.90;5.40;;;;;;;6.66;82.97;101116.19;103689;1313;22654;-60
2021/11/18 07:50:55;;;;;;;23.10;5.10;;;;;;;6.68;82.86;101114.65;103286;1309;22605;-60
2021/11/18 07:53:29;;;;;;;17.30;4.10;;;;;;;6.69;82.74;101112.80;103381;1313;26599;-59
2021/11/18 07:56:02;;;;;;;22.70;4.80;;;;;;;6.70;82.65;101110.63;103404;1309;24019;-62
2021/11/18 07:58:33;;;;;;;19.10;5.00;;;;;;;6.71;82.72;101116.31;103431;1313;22590;-59
2021/11/18 08:01:05;;;;;;;18.00;4.40;;;;;;;6.73;82.82;101120.33;103435;1316;25376;-59
2021/11/18 08:03:37;;;;;;;18.40;4.70;;;;;;;6.74;82.66;101121.81;103304;1316;24236;-60
2021/11/18 08:06:10;;;;;;;17.80;4.60;;;;;;;6.76;82.62;101125.96;103199;1314;22636;-62
2021/11/18 08:08:47;;;;;;;19.60;3.90;;;;;;;6.77;82.63;101135.44;103365;1308;22583;-61
2021/11/18 08:11:21;;;;;;;23.40;5.60;;;;;;;6.79;82.69;101137.14;103140;1309;22574;-60
2021/11/18 08:13:53;;;;;;;19.60;4.50;;;;;;;6.80;82.66;101140.13;103161;1309;25090;-60
2021/11/18 08:16:24;;;;;;;23.10;4.80;;;;;;;6.82;82.44;101133.27;103217;1309;22564;-60
2021/11/18 08:18:56;;;;;;;19.20;4.50;;;;;;;6.83;82.28;101137.38;103263;1308;22587;-60
2021/11/18 08:21:27;;;;;;;20.00;4.00;;;;;;;6.83;82.38;101137.38;103196;1307;22560;-62
2021/11/18 08:23:58;;;;;;;19.90;3.70;;;;;;;6.83;82.38;101144.66;103201;1315;22657;-60
2021/11/18 08:26:29;;;;;;;20.70;3.20;;;;;;;6.84;82.40;101147.97;103112;1309;24253;-60
2021/11/18 08:29:00;;;;;;;21.30;3.90;;;;;;;6.84;82.38;101156.69;103250;1314;26687;-59
2021/11/18 08:31:33;;;;;;;18.70;4.10;;;;;;;6.85;82.34;101159.29;103239;1308;22628;-60
2021/11/18 08:34:06;;;;;;;19.60;4.30;;;;;;;6.86;82.25;101154.97;103197;1316;22561;-60
2021/11/18 08:36:38;;;;;;;17.60;3.60;;;;;;;6.87;82.27;101164.87;103172;1316;24326;-60
2021/11/18 08:39:10;;;;;;;19.60;3.60;;;;;;;6.89;82.28;101166.58;103208;1313;22684;-59
2021/11/18 08:41:41;;;;;;;20.40;3.70;;;;;;;6.92;82.17;101169.05;103250;1313;22571;-62
2021/11/18 08:44:12;;;;;;;18.10;3.60;;;;;;;6.94;82.17;101178.27;103179;1315;22590;-60
2021/11/18 08:46:44;;;;;;;19.30;3.90;;;;;;;6.97;81.95;101185.02;103151;1313;22568;-62
2021/11/18 08:49:14;;;;;;;17.40;3.70;;;;;;;7.00;81.90;101190.04;103215;1309;22637;-60
2021/11/18 08:51:47;;;;;;;22.30;4.80;;;;;;;7.03;81.96;101205.27;103117;1316;22593;-62
2021/11/18 08:54:22;;;;;;;18.50;3.70;;;;;;;7.05;81.72;101211.24;103198;1308;24360;-60
2021/11/18 08:56:55;;;;;;;16.70;3.30;;;;;;;7.06;81.66;101210.27;103297;1309;24236;-59
2021/11/18 08:59:28;;;;;;;20.00;3.50;;;;;;;7.08;81.55;101214.66;103170;1313;22574;-62
2021/11/18 09:02:02;;;;;;;16.20;2.60;;;;;;;7.10;81.44;101218.74;103144;1308;22666;-59
2021/11/18 09:04:33;;;;;;;22.20;3.60;;;;;;;7.11;81.47;101218.25;103186;1308;24411;-60
2021/11/18 09:07:04;;;;;;;15.70;3.90;;;;;;;7.14;81.52;101228.02;103186;1314;22635;-59
2021/11/18 09:09:35;;;;;;;17.80;3.30;;;;;;;7.16;81.42;101230.12;103464;1309;22600;-60
2021/11/18 09:12:11;;;;;;;17.60;3.30;;;;;;;7.18;81.52;101234.51;103277;1309;22812;-59
2021/11/18 09:14:43;;;;;;;18.20;3.10;;;;;;;7.20;81.63;101243.34;103175;1315;25254;-59
2021/11/18 09:17:15;;;;;;;18.00;3.10;;;;;;;7.24;81.42;101241.43;103220;1315;22650;-61
2021/11/18 09:19:46;;;;;;;17.10;3.10;;;;;;;7.26;81.26;101240.11;103314;1316;22578;-62
2021/11/18 09:22:17;;;;;;;19.20;3.00;;;;;;;7.26;81.19;101237.40;103117;1312;25534;-60
2021/11/18 09:24:59;;;;;;;14.60;3.40;;;;;;;7.27;81.04;101229.69;103144;1309;22563;-59
2021/11/18 09:27:35;;;;;;;19.70;3.00;;;;;;;7.29;80.93;101222.35;103228;1309;24334;-59
2021/11/18 09:30:09;;;;;;;14.40;2.70;;;;;;;7.31;80.71;101217.14;103323;1312;22582;-61
2021/11/18 09:32:40;;;;;;;23.40;4.10;;;;;;;7.33;80.92;101209.62;103238;1316;22593;-60
2021/11/18 09:35:15;;;;;;;21.30;4.70;;;;;;;7.36;80.94;101206.87;103316;1316;22642;-60
2021/11/18 09:37:46;;;;;;;22.30;3.80;;;;;;;7.37;80.88;101205.50;103149;1313;22580;-60
2021/11/18 09:40:20;;;;;;;18.70;3.80;;;;;;;7.40;80.72;101213.27;103152;1315;22669;-60
2021/11/18 09:43:07;;;;;;;20.00;3.80;;;;;;;7.43;80.60;101212.80;103200;1309;22590;-60
2021/11/18 09:45:45;;;;;;;16.00;4.60;;;;;;;7.45;80.62;101210.77;103269;1308;22632;-61
2021/11/18 09:48:38;;;;;;;14.80;2.70;;;;;;;7.47;80.58;101201.70;103182;1308;22564;-61
2021/11/18 09:51:28;;;;;;;23.70;3.60;;;;;;;7.47;80.46;101193.33;103248;1316;24287;-60
2021/11/18 09:54:16;;;;;;;12.40;2.30;;;;;;;7.49;80.55;101192.59;103352;1316;23286;-59
2021/11/18 09:57:14;;;;;;;20.50;3.50;;;;;;;7.53;80.54;101195.66;103158;1308;25372;-60
2021/11/18 09:59:52;;;;;;;22.20;3.50;;;;;;;7.60;80.44;101194.84;103202;1316;22640;-61
2021/11/18 10:02:59;;;;;;;19.20;3.00;;;;;;;7.64;80.30;101193.52;103192;1313;26624;-60
2021/11/18 10:05:35;;;;;;;10.60;2.20;;;;;;;7.70;80.33;101192.75;102660;1319;22567;-60
2021/11/18 10:08:11;;;;;;;15.10;2.20;;;;;;;7.74;80.24;101195.11;102785;1319;24342;-58
2021/11/18 10:10:52;;;;;;;18.60;2.90;;;;;;;7.78;80.39;101195.63;102793;1314;24258;-59
2021/11/18 10:13:39;;;;;;;13.50;2.10;;;;;;;7.83;80.32;101191.54;102713;1321;25378;-60
2021/11/18 10:16:17;;;;;;;25.20;2.70;;;;;;;7.84;79.88;101187.86;102884;1316;22670;-68
2021/11/18 10:18:51;;;;;;;15.80;2.50;;;;;;;7.83;79.91;101183.74;102950;1314;22999;-68
2021/11/18 10:21:32;;;;;;;18.40;2.90;;;;;;;7.84;79.81;101180.54;103070;1316;24484;-68
2021/11/18 10:24:11;;;;;;;19.20;2.90;;;;;;;7.87;79.84;101169.67;103007;1320;25382;-68
2021/11/18 10:26:47;;;;;;;17.20;2.60;;;;;;;7.87;79.89;101169.73;103214;1321;24428;-59
2021/11/18 10:29:23;;;;;;;19.60;2.80;;;;;;;7.85;79.58;101179.71;102836;1315;22585;-60
2021/11/18 10:31:57;;;;;;;15.80;2.90;;;;;;;7.84;79.67;101184.73;102891;1314;24307;-59
2021/11/18 10:34:31;;;;;;;14.00;2.80;;;;;;;7.87;79.80;101190.79;102785;1319;25359;-60
2021/11/18 10:37:11;;;;;;;12.20;2.90;;;;;;;7.93;79.73;101190.30;102849;1319;24335;-58
2021/11/18 10:40:19;;;;;;;15.50;2.50;;;;;;;8.02;79.74;101184.27;102850;1317;22584;-60
2021/11/18 10:42:53;;;;;;;18.10;3.40;;;;;;;8.10;79.32;101175.61;103394;1308;25402;-61
2021/11/18 10:45:37;;;;;;;16.10;3.20;;;;;;;8.13;79.14;101172.03;103304;1308;22590;-59
2021/11/18 10:48:21;;;;;;;18.30;2.00;;;;;;;8.14;78.82;101165.56;103377;1313;22587;-59
2021/11/18 10:50:56;;;;;;;18.20;3.40;;;;;;;8.13;78.45;101154.00;103147;1316;25338;-59
2021/11/18 10:53:29;;;;;;;18.00;2.40;;;;;;;8.11;78.58;101144.42;103274;1315;25467;-61
2021/11/18 10:56:09;;;;;;;14.40;1.60;;;;;;;8.11;78.54;101146.04;103452;1308;22806;-59
2021/11/18 10:58:45;;;;;;;17.80;2.00;;;;;;;8.10;78.48;101154.40;103402;1315;24159;-60
2021/11/18 11:01:31;;;;;;;19.30;2.20;;;;;;;8.10;78.52;101160.59;103214;1309;22660;-59
2021/11/18 11:04:05;;;;;;;18.90;2.40;;;;;;;8.10;78.46;101171.95;103159;1313;22661;-62
2021/11/18 11:06:50;;;;;;;15.10;2.60;;;;;;;8.09;78.50;101179.61;103197;1309;25279;-61
2021/11/18 11:09:22;;;;;;;18.00;2.20;;;;;;;8.07;78.36;101183.58;103186;1314;24847;-59
2021/11/18 11:12:06;;;;;;;14.60;2.20;;;;;;;8.05;78.17;101174.79;103430;1314;25316;-58
2021/11/18 11:14:53;;;;;;;15.70;2.60;;;;;;;8.06;78.10;101164.04;103274;1315;22593;-61
2021/11/18 11:18:03;;;;;;;17.10;2.50;;;;;;;8.10;78.24;101153.44;103132;1315;24682;-59
2021/11/18 11:20:45;;;;;;;18.60;1.90;;;;;;;8.15;78.29;101162.29;102735;1319;22833;-59
2021/11/18 11:23:24;;;;;;;19.10;2.10;;;;;;;8.19;78.36;101176.72;102823;1319;22580;-61
2021/11/18 11:26:15;;;;;;;21.60;2.40;;;;;;;8.23;78.08;101178.75;102700;1319;22712;-59
2021/11/18 11:29:07;;;;;;;16.20;1.80;;;;;;;8.29;77.80;101175.04;103113;1319;25514;-61
2021/11/18 11:31:53;;;;;;;17.00;2.80;;;;;;;8.35;77.70;101173.80;103208;1315;24723;-61
2021/11/18 11:34:55;;;;;;;16.00;2.00;;;;;;;8.44;77.79;101180.45;103023;1319;22592;-61
2021/11/18 11:37:52;;;;;;;16.50;2.80;;;;;;;8.53;77.92;101191.66;102930;1315;234338;-60
2021/11/18 11:40:29;;;;;;;22.70;3.10;;;;;;;8.61;77.47;101194.61;102903;1315;24786;-61
2021/11/18 11:43:39;;;;;;;18.10;2.60;;;;;;;8.64;77.40;101187.98;103085;1319;22664;-60
2021/11/18 11:46:37;;;;;;;14.10;2.80;;;;;;;8.66;77.47;101175.13;102811;1319;24304;-61
2021/11/18 11:49:33;;;;;;;12.80;1.60;;;;;;;8.68;77.38;101169.73;102696;1321;25431;-60